logo
App data

Fractal: Make Blooms Not War

Push, Combo, and Chain your way through a pulsing technicolor dreamscape all the while expanding your consciousness at 130 BPM.
Store | Hub | SteamDB | Site
Developer: Cipher Prime Studios Publisher: Cipher Prime Studios
Genre: Indie, Casual
Languages: English, French, German, Italian, Japanese, Korean, Portuguese, Russian, Simplified Chinese, Spanish - Spain
Tags: Casual (41), Indie (39), Puzzle (31)
Category: Single-player
Release date: Nov 29, 2011
Price: $6.99
Old userscore: 76% Owners: 100,000 .. 200,000
Followers: 0
Peak concurrent players yesterday: 1
Playtime total: 00:48 (average) 01:07 (median)

Steam Spy is still in beta, so expect major bugs.

Owners data:

Access restricted.

This feature is only available to users with special access rights. Sorry.

If you want to proceed, you need to register or log in first and then back Steam Spy on Patreon. Look for Indie or Pro pledge.

Don't forget to use the same email as on Steam Spy!

Audience in 2 weeks:

Access restricted.

This feature is only available to users with special access rights. Sorry.

If you want to proceed, you need to register or log in first and then back Steam Spy on Patreon. Look for Indie or Pro pledge.

Don't forget to use the same email as on Steam Spy!

Peak daily concurrent players:

CCU data courtesy of SteamDB. Used with permission.

Hourly concurrent players:

Daily Twitch stats:

Hourly Twitch stats:

Followers over time

Access restricted.

This feature is only available to users with special access rights. Sorry.

If you want to proceed, you need to register or log in first and then back Steam Spy on Patreon. Look for Indie or Pro pledge.

Don't forget to use the same email as on Steam Spy!

Views for top 50 videos on YouTube for this game:

Games similar to this one:

# Game Release date
Price
Score rank
(Userscore / Metascore)
Owners
Players
Playtime (Median)
1 Chicken Shoot Gold Nov 1, 2003 $6.99N/A (N/A)100,000 .. 200,0002.56%00:01 (00:00)
2 Containment: The Zombie Puzzler Mar 2, 2012 $4.99N/A (N/A)50,000 .. 100,0000%00:00 (00:00)
3 School Bus Fun Jul 3, 2014 $5.99N/A (N/A)0 .. 20,0000%00:00 (00:00)
4 Flight Control HD Nov 18, 2010 $4.99N/A (N/A)50,000 .. 100,0000%00:00 (00:00)
5 YOU DON'T KNOW JACK Vol. 3 Oct 31, 1997 $2.99N/A (N/A)20,000 .. 50,0000%00:00 (00:00)
6 Pickers Feb 22, 2012 $9.99N/A (N/A)50,000 .. 100,0000%00:00 (00:00)
7 Lexica Jul 4, 2014 $4.99N/A (N/A)100,000 .. 200,0000%00:00 (00:00)
8 Chime Sep 6, 2010 $4.99N/A (N/A)50,000 .. 100,0000%00:00 (00:00)
9 Trench Run Apr 7, 2016 $3.99N/A (N/A)0 .. 20,0000%00:00 (00:00)
10 Crazy Machines Elements Dec 6, 2011 $9.99N/A (N/A)20,000 .. 50,0000%00:00 (00:00)
11 Coffin Dodgers Jul 8, 2015 $2.19N/A (N/A)50,000 .. 100,0000%00:00 (00:00)
12 ARMA: Gold Edition Jul 13, 2011 $9.99N/A (N/A)200,000 .. 500,0000%00:00 (00:00)
13 Little Racers STREET Feb 6, 2014 $5.99N/A (N/A/62%)100,000 .. 200,0000%00:00 (00:00)
14 3SwitcheD Mar 29, 2012 $9.99N/A (N/A)200,000 .. 500,0000%00:00 (00:00)
15 Dead Hungry Diner May 16, 2012 $3.99N/A (N/A)20,000 .. 50,0000%00:00 (00:00)
16 Governor of Poker 2 Oct 11, 2010 $7.99N/A (N/A)20,000 .. 50,0000%00:00 (00:00)
17 Left in the Dark: No One on Board Aug 20, 2013 $9.99N/A (N/A)50,000 .. 100,0000%00:00 (00:00)
18 X: Tension Jun 1, 2000 $4.99N/A (N/A)200,000 .. 500,0000%00:00 (00:00)
19 7 Wonders: Ancient Alien Makeover Oct 24, 2012 $9.99N/A (N/A)50,000 .. 100,0000%00:00 (00:00)
20 Worms Blast Mar 30, 2002 $1.59N/A (N/A/73%)100,000 .. 200,0000%00:00 (00:00)
21 On The Road - Truck Simulator Nov 14, 2019 $29.99N/A (N/A)0 .. 20,0000%00:00 (00:00)
22 Puzzle Kingdoms Apr 16, 2009 $14.99N/A (N/A)50,000 .. 100,0000%00:00 (00:00)
23 Spacebase DF-9 Oct 27, 2014 $9.99N/A (N/A/49%)100,000 .. 200,0000%00:00 (00:00)
24 Iron Front: Digital War Edition May 25, 2012 $14.99N/A (N/A/55%)50,000 .. 100,0000%00:00 (00:00)
25 Kitty Powers' Matchmaker Apr 22, 2015 $9.99N/A (N/A)50,000 .. 100,0000%00:00 (00:00)
26 The Guild II Oct 12, 2006 $9.99N/A (N/A/61%)200,000 .. 500,0000%00:00 (00:00)
27 YOU DON'T KNOW JACK Vol. 1 XL Sep 12, 1995 $2.99N/A (N/A)0 .. 20,0000%00:00 (00:00)
28 Critical Mass Jun 20, 2011 $1.99N/A (N/A/81%)100,000 .. 200,0000%00:00 (00:00)
29 Dog Sled Saga Sep 22, 2016 $7.99N/A (N/A)20,000 .. 50,0000%00:00 (00:00)
30 Lucid Jul 19, 2011 $4.99N/A (N/A)50,000 .. 100,0000%00:00 (00:00)
31 Pool Nation Oct 18, 2013 $6.99N/A (N/A)200,000 .. 500,0000%00:00 (00:00)
32 Snuggle Truck Feb 3, 2012 $4.99N/A (N/A)50,000 .. 100,0000%00:00 (00:00)
33 X-Plane 10 Global - 64 Bit Jul 14, 2014 N/AN/A (N/A)50,000 .. 100,0000%00:00 (00:00)
34 Zen Bound 2 Nov 16, 2010 $4.99N/A (N/A)100,000 .. 200,0000%00:00 (00:00)
35 Doodle God Sep 24, 2015 $14.99N/A (N/A)50,000 .. 100,0000%00:00 (00:00)
36 Tales of the Orient: The Rising Sun Feb 27, 2015 $9.99N/A (N/A)50,000 .. 100,0000%00:00 (00:00)
37 Night Mysteries: The Amphora Prisoner Feb 26, 2015 $1.99N/A (N/A)100,000 .. 200,0000%00:00 (00:00)
38 Moorhuhn (Crazy Chicken) Feb 5, 2015 $1.99N/A (N/A)50,000 .. 100,0000%00:00 (00:00)
39 Time Mysteries: Inheritance - Remastered Oct 6, 2014 $9.99N/A (N/A)50,000 .. 100,0000%00:00 (00:00)
40 Domestic Dog Aug 7, 2014 $2.99N/A (N/A)20,000 .. 50,0000%00:00 (00:00)
41 Bus Simulator 16 Mar 2, 2016 $17.99N/A (N/A)200,000 .. 500,0000%00:00 (00:00)
42 Space Station Alpha Feb 27, 2015 $5.99N/A (N/A)20,000 .. 50,0000%00:00 (00:00)
43 Space Legends: At the Edge of the Universe Jul 25, 2014 $9.99N/A (N/A)20,000 .. 50,0000%00:00 (00:00)
44 Air Guardians Jan 26, 2015 $0.99N/A (N/A)50,000 .. 100,0000%00:00 (00:00)
45 QbQbQb Oct 29, 2014 $4.99N/A (N/A)20,000 .. 50,0000%00:00 (00:00)
46 Witch's Pranks: Frog's Fortune Collector's Edition May 7, 2014 $6.99N/A (N/A)20,000 .. 50,0000%00:00 (00:00)
47 Luna's Wandering Stars May 15, 2015 $9.99N/A (N/A)50,000 .. 100,0000%00:00 (00:00)
48 Inbetween Land Feb 19, 2015 $1.39N/A (N/A)20,000 .. 50,0000%00:00 (00:00)
49 Demon Hunter: Chronicles from Beyond Dec 4, 2014 $9.99N/A (N/A)50,000 .. 100,0000%00:00 (00:00)
50 Hidden Object Bundle 5 in 1 Feb 27, 2015 $9.99N/A (N/A)20,000 .. 50,0000%00:00 (00:00)
51 Inside The Gear Nov 21, 2014 $0.49N/A (N/A)50,000 .. 100,0000%00:00 (00:00)
52 12 Labours of Hercules II: The Cretan Bull Jun 2, 2015 $2.99N/A (N/A)200,000 .. 500,0005.56%00:03 (00:01)
53 Idol Magical Girl Chiru Chiru Michiru Part 1 Jul 29, 2015 $19.99N/A (N/A)50,000 .. 100,0000%00:00 (00:00)
54 12 Labours of Hercules III: Girl Power Aug 7, 2015 $2.99N/A (N/A)100,000 .. 200,0007.14%00:14 (00:04)
55 The Oil Blue: Steam Legacy Edition Jun 22, 2010 $4.99N/A (N/A)20,000 .. 50,0000%00:00 (00:00)
56 Sparkle 3 Genesis Apr 24, 2015 $4.99N/A (N/A)200,000 .. 500,0000%00:00 (00:00)
57 Mountain Crime: Requital Dec 24, 2011 $2.99N/A (N/A)20,000 .. 50,0000%00:00 (00:00)
58 Portal of Evil: Stolen Runes Collector's Edition May 26, 2015 $4.99N/A (N/A)100,000 .. 200,0008.33%02:03 (00:41)
59 The Corporate Machine Jul 14, 2001 $9.99N/A (N/A/80%)20,000 .. 50,0000%00:00 (00:00)
60 Mind Snares: Alice's Journey Apr 23, 2015 $9.99N/A (N/A)50,000 .. 100,0000%00:00 (00:00)
61 Intergalactic Bubbles May 29, 2015 $1.99N/A (N/A)200,000 .. 500,0000%00:00 (00:00)
62 Tea Party Simulator 2015 Apr 23, 2015 $9.99N/A (N/A)100,000 .. 200,0000%00:00 (00:00)
63 Dreamscapes: Nightmare's Heir - Premium Edition Mar 11, 2015 $6.99N/A (N/A)20,000 .. 50,0000%00:00 (00:00)
64 Star Trek: Starfleet Academy May 8, 2015 $9.99N/A (N/A)50,000 .. 100,0000%00:00 (00:00)
65 Metamorphabet Apr 29, 2015 $4.99N/A (N/A)0 .. 20,0000%00:00 (00:00)
66 Organ Biker Jun 1, 2015 $0.99N/A (N/A)20,000 .. 50,0000%00:00 (00:00)
67 Brave Furries May 18, 2014 $0.99N/A (N/A)20,000 .. 50,0000%00:00 (00:00)
68 President for a Day - Floodings Aug 12, 2015 $0.99N/A (N/A)20,000 .. 50,0000%00:00 (00:00)
69 Fantasy Kingdom Simulator Jun 13, 2016 $0.99N/A (N/A)100,000 .. 200,0000%00:00 (00:00)
70 The Cooking Game Oct 21, 2016 FreeN/A (N/A)100,000 .. 200,0000%00:00 (00:00)
71 The Secret Order 4: Beyond Time Sep 22, 2016 $2.99N/A (N/A)20,000 .. 50,0000%00:00 (00:00)
72 Peak Angle: Drift Online Nov 25, 2016 $7.99N/A (N/A)20,000 .. 50,0000%00:00 (00:00)
73 Dracula's Legacy Oct 22, 2015 $2.99N/A (N/A)50,000 .. 100,0000%00:00 (00:00)
74 Dark Angels: Masquerade of Shadows Nov 26, 2013 $3.99N/A (N/A)0 .. 20,0000%00:00 (00:00)
75 Robot Squad Simulator 2017 Oct 20, 2016 $14.99N/A (N/A)0 .. 20,00011.11%00:46 (00:15)
76 Project:surviving May 1, 2017 $0.99N/A (N/A)100,000 .. 200,0000%00:00 (00:00)
77 Fairy Tale Mysteries: The Puppet Thief Jan 7, 2016 $9.99N/A (N/A)50,000 .. 100,0000%00:00 (00:00)
78 Intelligent Design: An Evolutionary Sandbox May 12, 2017 $6.99N/A (N/A)20,000 .. 50,0000%00:00 (00:00)
79 Earth Space Colonies Jul 1, 2016 $9.99N/A (N/A)20,000 .. 50,0000%00:00 (00:00)
80 The Sandbox Evolution - Craft a 2D Pixel Universe! Nov 15, 2016 FreeN/A (N/A)100,000 .. 200,0000%00:00 (00:00)

Tags over time:

Access restricted.

This feature is only available to users with special access rights. Sorry.

If you want to proceed, you need to register or log in first and then back Steam Spy on Patreon. Look for Indie or Pro pledge.

Don't forget to use the same email as on Steam Spy!

Owners of this game also own:

Access restricted.

This feature is only available to users with special access rights. Sorry.

If you want to proceed, you need to register or log in first and then back Steam Spy on Patreon. Look for Indie or Pro pledge.

Don't forget to use the same email as on Steam Spy!

Playtime distribution:

Access restricted.

This feature is only available to users with special access rights. Sorry.

If you want to proceed, you need to register or log in first and then back Steam Spy on Patreon. Look for Indie or Pro pledge.

Don't forget to use the same email as on Steam Spy!

Playtime (2 weeks):

Access restricted.

This feature is only available to users with special access rights. Sorry.

If you want to proceed, you need to register or log in first and then back Steam Spy on Patreon. Look for Indie or Pro pledge.

Don't forget to use the same email as on Steam Spy!

User reviews:

Login required.

Please register or log in to see this information.